createdAt,value
2023-01-09T00:01:55.152Z,0.10
2023-01-09T00:04:21.521Z,0.10
2023-01-09T00:06:53.986Z,0.10
2023-01-09T00:09:22.028Z,0.10
2023-01-09T00:11:49.151Z,0.10
2023-01-09T00:14:19.125Z,0.10
2023-01-09T00:16:45.519Z,0.10
2023-01-09T00:19:12.180Z,0.50
2023-01-09T00:21:38.617Z,0.10
2023-01-09T00:24:05.495Z,0.10
2023-01-09T00:26:32.667Z,0.10
2023-01-09T00:28:59.099Z,0.10
2023-01-09T00:31:25.511Z,0.17
2023-01-09T00:33:57.754Z,0.00
2023-01-09T00:36:24.284Z,0.10
2023-01-09T00:38:51.032Z,0.00
2023-01-09T00:41:21.732Z,0.10
2023-01-09T00:43:51.735Z,0.10
2023-01-09T00:46:20.784Z,0.05
2023-01-09T00:48:49.237Z,0.20
2023-01-09T00:51:19.526Z,0.10
2023-01-09T00:53:47.816Z,0.10
2023-01-09T00:56:18.207Z,0.20
2023-01-09T00:58:45.489Z,0.10
2023-01-09T01:01:12.283Z,0.30
2023-01-09T01:03:39.712Z,0.15
2023-01-09T01:06:24.696Z,0.10
2023-01-09T01:08:51.257Z,0.45
2023-01-09T01:11:17.851Z,0.28
2023-01-09T01:13:44.315Z,0.13
2023-01-09T01:16:12.749Z,0.20
2023-01-09T01:18:40.201Z,0.10
2023-01-09T01:21:08.763Z,0.10
2023-01-09T01:23:36.140Z,0.10
2023-01-09T01:26:14.592Z,0.10
2023-01-09T01:28:41.833Z,0.20
2023-01-09T01:31:08.898Z,0.20
2023-01-09T01:33:35.325Z,0.10
2023-01-09T01:36:01.631Z,0.20
2023-01-09T01:38:28.897Z,0.15
2023-01-09T01:40:55.939Z,0.40
2023-01-09T01:43:22.376Z,0.60
2023-01-09T01:45:48.825Z,0.30
2023-01-09T01:48:20.685Z,0.20
2023-01-09T01:50:55.371Z,0.20
2023-01-09T01:53:32.222Z,0.40
2023-01-09T01:56:05.389Z,0.20
2023-01-09T01:58:34.074Z,0.40
2023-01-09T02:01:01.029Z,0.40
2023-01-09T02:03:29.035Z,0.40
2023-01-09T02:05:55.661Z,0.40
2023-01-09T02:08:22.437Z,0.57
2023-01-09T02:10:50.476Z,0.40
2023-01-09T02:13:17.620Z,0.47
2023-01-09T02:16:10.982Z,0.57
2023-01-09T02:18:52.194Z,0.50
2023-01-09T02:22:02.535Z,0.70
2023-01-09T02:24:51.994Z,0.52
2023-01-09T02:28:06.865Z,1.00
2023-01-09T02:31:02.863Z,0.70
2023-01-09T02:34:10.626Z,0.80
2023-01-09T02:36:59.412Z,0.63
2023-01-09T02:40:07.179Z,0.50
2023-01-09T02:42:35.704Z,0.85
2023-01-09T02:45:02.072Z,0.50
2023-01-09T02:47:29.229Z,0.80
2023-01-09T02:50:02.359Z,1.13
2023-01-09T02:53:19.819Z,0.60
2023-01-09T02:56:20.267Z,0.65
2023-01-09T02:59:08.456Z,0.77
2023-01-09T03:02:01.092Z,0.60
2023-01-09T03:05:08.668Z,0.85
2023-01-09T03:07:41.592Z,0.88
2023-01-09T03:10:18.981Z,0.60
2023-01-09T03:12:48.468Z,0.77
2023-01-09T03:15:16.632Z,0.77
2023-01-09T03:17:47.844Z,1.45
2023-01-09T03:20:19.681Z,0.40
2023-01-09T03:22:53.690Z,0.68
2023-01-09T03:25:20.079Z,0.60
2023-01-09T03:27:46.495Z,0.70
2023-01-09T03:30:13.072Z,0.70
2023-01-09T03:32:39.442Z,0.70
2023-01-09T03:35:06.059Z,0.40
2023-01-09T03:37:32.383Z,0.70
2023-01-09T03:39:58.769Z,0.60
2023-01-09T03:42:25.141Z,0.60
2023-01-09T03:44:52.011Z,0.47
2023-01-09T03:47:18.411Z,0.40
2023-01-09T03:49:44.735Z,0.60
2023-01-09T03:52:13.830Z,0.80
2023-01-09T03:54:40.487Z,0.40
2023-01-09T03:57:06.856Z,0.70
2023-01-09T03:59:33.181Z,0.50
2023-01-09T04:02:00.579Z,0.60
2023-01-09T04:04:28.501Z,0.83
2023-01-09T04:06:54.848Z,0.52
2023-01-09T04:09:21.169Z,0.40
2023-01-09T04:11:47.533Z,0.50
2023-01-09T04:14:14.299Z,0.50
2023-01-09T04:16:40.795Z,0.50
2023-01-09T04:19:07.139Z,1.00
2023-01-09T04:21:33.599Z,0.47
2023-01-09T04:24:00.076Z,0.45
2023-01-09T04:26:26.460Z,0.47
2023-01-09T04:28:52.847Z,0.60
2023-01-09T04:31:19.212Z,0.40
2023-01-09T04:33:45.605Z,0.50
2023-01-09T04:36:12.003Z,0.50
2023-01-09T04:38:38.424Z,0.77
2023-01-09T04:41:04.858Z,0.40
2023-01-09T04:43:31.383Z,0.30
2023-01-09T04:45:57.757Z,0.30
2023-01-09T04:48:24.185Z,0.50
2023-01-09T04:50:50.584Z,0.30
2023-01-09T04:53:17.015Z,0.40
2023-01-09T04:55:43.421Z,0.50
2023-01-09T04:58:09.881Z,0.20
2023-01-09T05:00:36.221Z,0.20
2023-01-09T05:03:02.926Z,0.68
2023-01-09T05:05:29.342Z,0.20
2023-01-09T05:07:55.768Z,0.10
2023-01-09T05:10:22.137Z,0.20
2023-01-09T05:12:48.497Z,0.20
2023-01-09T05:15:14.877Z,0.50
2023-01-09T05:17:41.263Z,0.20
2023-01-09T05:20:08.057Z,0.25
2023-01-09T05:22:34.376Z,0.20
2023-01-09T05:25:00.804Z,0.20
2023-01-09T05:27:27.277Z,0.20
2023-01-09T05:29:53.696Z,0.20
2023-01-09T05:32:20.036Z,0.10
2023-01-09T05:34:46.415Z,0.13
2023-01-09T05:37:12.839Z,0.30
2023-01-09T05:39:39.299Z,0.20
2023-01-09T05:42:05.773Z,0.20
2023-01-09T05:44:32.139Z,0.20
2023-01-09T05:46:58.492Z,0.20
2023-01-09T05:49:24.854Z,0.17
2023-01-09T05:51:51.289Z,0.20
2023-01-09T05:54:17.693Z,0.20
2023-01-09T05:56:44.067Z,0.30
2023-01-09T05:59:10.466Z,0.20
2023-01-09T06:01:36.821Z,0.32
2023-01-09T06:04:03.198Z,0.25
2023-01-09T06:06:29.580Z,0.40
2023-01-09T06:08:55.962Z,0.40
2023-01-09T06:11:22.370Z,0.30
2023-01-09T06:13:48.739Z,0.28
2023-01-09T06:16:15.204Z,0.32
2023-01-09T06:18:41.578Z,0.10
2023-01-09T06:21:07.924Z,0.30
2023-01-09T06:23:34.255Z,0.25
2023-01-09T06:26:00.628Z,0.35
2023-01-09T06:28:26.944Z,0.10
2023-01-09T06:30:53.389Z,0.30
2023-01-09T06:33:20.102Z,0.20
2023-01-09T06:35:46.486Z,0.28
2023-01-09T06:38:12.959Z,0.20
2023-01-09T06:40:39.378Z,0.30
2023-01-09T06:43:06.361Z,0.23
2023-01-09T06:45:32.680Z,0.20
2023-01-09T06:47:59.008Z,0.45
2023-01-09T06:50:25.316Z,0.30
2023-01-09T06:52:51.713Z,0.30
2023-01-09T06:55:18.208Z,0.20
2023-01-09T06:57:44.531Z,0.20
2023-01-09T07:00:11.558Z,0.20
2023-01-09T07:02:37.951Z,0.20
2023-01-09T07:05:07.509Z,0.28
2023-01-09T07:07:34.332Z,0.20
2023-01-09T07:10:00.731Z,0.20
2023-01-09T07:12:27.121Z,0.25
2023-01-09T07:14:54.388Z,0.43
2023-01-09T07:17:21.526Z,0.55
2023-01-09T07:19:47.869Z,0.20
2023-01-09T07:22:14.242Z,0.20
2023-01-09T07:24:40.581Z,0.20
2023-01-09T07:27:06.958Z,0.25
2023-01-09T07:29:33.272Z,0.40
2023-01-09T07:31:59.644Z,0.10
2023-01-09T07:34:25.969Z,0.32
2023-01-09T07:36:52.429Z,0.30
2023-01-09T07:39:18.836Z,0.40
2023-01-09T07:41:45.976Z,0.30
2023-01-09T07:44:12.553Z,0.50
2023-01-09T07:46:39.280Z,0.40
2023-01-09T07:49:05.932Z,0.40
2023-01-09T07:51:32.349Z,0.35
2023-01-09T07:53:58.825Z,0.50
2023-01-09T07:56:25.220Z,0.60
2023-01-09T07:58:51.637Z,0.47
2023-01-09T08:01:18.161Z,0.55
2023-01-09T08:03:44.644Z,0.50
2023-01-09T08:06:11.021Z,0.63
2023-01-09T08:08:37.428Z,0.52
2023-01-09T08:11:03.868Z,0.85
2023-01-09T08:13:30.194Z,0.82
2023-01-09T08:15:56.664Z,0.52
2023-01-09T08:18:23.094Z,0.40
2023-01-09T08:20:49.554Z,0.10
2023-01-09T08:23:15.947Z,0.43
2023-01-09T08:25:42.309Z,0.10
2023-01-09T08:28:09.309Z,0.10
2023-01-09T08:30:36.693Z,0.10
2023-01-09T08:33:03.104Z,0.00
2023-01-09T08:35:29.696Z,0.10
2023-01-09T08:37:56.055Z,0.10
2023-01-09T08:40:22.369Z,0.10
2023-01-09T08:43:07.433Z,0.10
2023-01-09T08:45:52.771Z,0.10
2023-01-09T08:48:19.212Z,0.10
2023-01-09T08:50:46.566Z,0.00
2023-01-09T08:53:13.531Z,0.10
2023-01-09T08:55:39.909Z,0.10
2023-01-09T08:58:06.250Z,0.10
2023-01-09T09:00:32.672Z,0.20
2023-01-09T09:03:01.128Z,0.40
2023-01-09T09:05:29.361Z,0.20
2023-01-09T09:07:56.315Z,0.10
2023-01-09T09:10:24.294Z,0.10
2023-01-09T09:12:52.165Z,0.15
2023-01-09T09:15:25.084Z,0.20
2023-01-09T09:17:54.395Z,0.40
2023-01-09T09:20:23.203Z,0.10
2023-01-09T09:22:50.029Z,0.30
2023-01-09T09:25:17.789Z,0.00
2023-01-09T09:27:44.408Z,0.35
2023-01-09T09:30:14.042Z,0.10
2023-01-09T09:32:41.217Z,0.20
2023-01-09T09:35:08.635Z,0.20
2023-01-09T09:37:35.353Z,0.38
2023-01-09T09:40:13.387Z,0.10
2023-01-09T09:43:34.081Z,0.20
2023-01-09T09:46:23.895Z,0.75
2023-01-09T09:48:56.808Z,0.13
2023-01-09T09:51:32.179Z,0.10
2023-01-09T09:54:12.936Z,0.35
2023-01-09T09:56:57.392Z,0.38
2023-01-09T09:59:28.282Z,0.10
2023-01-09T10:02:02.479Z,0.00
2023-01-09T10:04:32.218Z,0.17
2023-01-09T10:07:19.828Z,0.13
2023-01-09T10:09:49.838Z,0.20
2023-01-09T10:12:37.748Z,0.32
2023-01-09T10:15:15.854Z,0.10
2023-01-09T10:17:48.188Z,0.13
2023-01-09T10:20:35.600Z,0.10
2023-01-09T10:23:23.231Z,0.20
2023-01-09T10:25:56.498Z,0.20
2023-01-09T10:28:50.968Z,0.28
2023-01-09T10:31:46.295Z,0.22
2023-01-09T10:34:27.825Z,0.20
2023-01-09T10:37:25.159Z,0.10
2023-01-09T10:40:00.055Z,0.45
2023-01-09T10:42:34.614Z,0.35
2023-01-09T10:45:25.692Z,0.13
2023-01-09T10:48:00.953Z,0.10
2023-01-09T10:50:33.203Z,0.32
2023-01-09T10:53:05.144Z,0.20
2023-01-09T10:55:43.962Z,0.10
2023-01-09T10:58:20.386Z,0.10
2023-01-09T11:00:48.535Z,0.10
2023-01-09T11:03:17.587Z,0.10
2023-01-09T11:05:48.283Z,0.10
2023-01-09T11:08:30.773Z,0.10
2023-01-09T11:10:59.911Z,0.17
2023-01-09T11:13:32.995Z,0.10
2023-01-09T11:16:07.180Z,0.10
2023-01-09T11:18:37.928Z,0.10
2023-01-09T11:21:30.621Z,0.43
2023-01-09T11:24:21.953Z,0.40
2023-01-09T11:26:53.376Z,1.08
2023-01-09T11:29:26.115Z,0.20
2023-01-09T11:31:58.116Z,0.10
2023-01-09T11:34:27.272Z,0.43
2023-01-09T11:37:01.818Z,0.63
2023-01-09T11:39:31.897Z,0.35
2023-01-09T11:42:01.956Z,0.40
2023-01-09T11:44:30.839Z,0.30
2023-01-09T11:46:57.296Z,1.00
2023-01-09T11:49:29.561Z,0.50
2023-01-09T11:52:13.798Z,0.70
2023-01-09T11:54:47.423Z,0.30
2023-01-09T11:57:13.966Z,0.30
2023-01-09T11:59:40.591Z,1.27
2023-01-09T12:02:32.765Z,0.40
2023-01-09T12:05:10.508Z,0.90
2023-01-09T12:07:39.893Z,0.55
2023-01-09T12:10:17.114Z,0.40
2023-01-09T12:13:06.508Z,0.32
2023-01-09T12:15:35.889Z,1.07
2023-01-09T12:18:23.868Z,0.30
2023-01-09T12:21:01.516Z,0.50
2023-01-09T12:23:46.388Z,0.20
2023-01-09T12:26:20.947Z,0.43
2023-01-09T12:29:11.519Z,0.27
2023-01-09T12:32:05.545Z,0.35
2023-01-09T12:34:52.609Z,0.30
2023-01-09T12:37:20.255Z,0.30
2023-01-09T12:40:01.791Z,0.30
2023-01-09T12:42:38.966Z,0.20
2023-01-09T12:45:14.313Z,0.10
2023-01-09T12:47:49.215Z,0.20
2023-01-09T12:50:50.837Z,0.60
2023-01-09T12:53:31.029Z,0.30
2023-01-09T12:56:10.099Z,0.70
2023-01-09T12:58:44.765Z,0.68
2023-01-09T13:01:18.067Z,0.40
2023-01-09T13:04:12.875Z,0.93
2023-01-09T13:06:46.773Z,0.50
2023-01-09T13:09:18.207Z,0.30
2023-01-09T13:11:58.830Z,0.77
2023-01-09T13:14:49.959Z,1.33
2023-01-09T13:17:23.433Z,0.25
2023-01-09T13:19:49.883Z,0.55
2023-01-09T13:22:18.130Z,0.20
2023-01-09T13:25:21.530Z,0.35
2023-01-09T13:27:57.832Z,0.20
2023-01-09T13:30:45.344Z,0.20
2023-01-09T13:33:24.372Z,0.30
2023-01-09T13:35:57.349Z,0.50
2023-01-09T13:38:29.096Z,0.43
2023-01-09T13:41:33.294Z,0.43
2023-01-09T13:44:02.538Z,0.25
2023-01-09T13:46:36.882Z,1.02
2023-01-09T13:49:03.837Z,0.53
2023-01-09T13:51:42.525Z,0.20
2023-01-09T13:54:10.262Z,0.40
2023-01-09T13:57:14.120Z,0.45
2023-01-09T13:59:40.472Z,0.30
2023-01-09T14:02:35.901Z,0.87
2023-01-09T14:05:08.054Z,0.95
2023-01-09T14:07:36.049Z,0.63
2023-01-09T14:10:07.699Z,0.40
2023-01-09T14:12:41.870Z,0.50
2023-01-09T14:15:29.634Z,0.32
2023-01-09T14:18:01.309Z,0.70
2023-01-09T14:20:38.482Z,0.35
2023-01-09T14:23:28.185Z,0.68
2023-01-09T14:25:55.535Z,0.65
2023-01-09T14:28:27.228Z,0.30
2023-01-09T14:30:53.591Z,0.30
2023-01-09T14:33:19.927Z,0.50
2023-01-09T14:36:09.962Z,0.28
2023-01-09T14:38:46.265Z,0.68
2023-01-09T14:41:18.497Z,0.50
2023-01-09T14:43:54.000Z,0.65
2023-01-09T14:46:22.972Z,0.50
2023-01-09T14:49:01.753Z,0.30
2023-01-09T14:51:31.617Z,0.50
2023-01-09T14:54:01.316Z,0.30
2023-01-09T14:56:31.577Z,0.40
2023-01-09T14:59:12.696Z,0.22
2023-01-09T15:01:42.141Z,0.50
2023-01-09T15:04:27.380Z,0.52
2023-01-09T15:06:54.036Z,0.43
2023-01-09T15:09:29.036Z,0.40
2023-01-09T15:12:01.967Z,0.30
2023-01-09T15:14:39.882Z,0.40
2023-01-09T15:17:16.641Z,0.73
2023-01-09T15:19:46.038Z,0.83
2023-01-09T15:22:22.703Z,0.77
2023-01-09T15:24:49.995Z,0.30
2023-01-09T15:27:18.998Z,0.30
2023-01-09T15:29:45.357Z,0.38
2023-01-09T15:32:29.848Z,0.60
2023-01-09T15:34:57.613Z,0.90
2023-01-09T15:37:31.542Z,0.85
2023-01-09T15:40:00.759Z,0.20
2023-01-09T15:42:50.079Z,0.85
2023-01-09T15:45:37.041Z,0.30
2023-01-09T15:48:32.867Z,0.52
2023-01-09T15:51:13.453Z,0.20
2023-01-09T15:53:41.336Z,0.73
2023-01-09T15:56:19.618Z,1.17
2023-01-09T15:58:48.431Z,0.30
2023-01-09T16:01:35.117Z,0.77
2023-01-09T16:04:15.932Z,0.20
2023-01-09T16:06:51.642Z,0.43
2023-01-09T16:09:23.176Z,0.80
2023-01-09T16:11:53.113Z,0.40
2023-01-09T16:14:24.538Z,1.02
2023-01-09T16:16:52.479Z,0.55
2023-01-09T16:19:49.035Z,0.30
2023-01-09T16:22:22.964Z,0.63
2023-01-09T16:24:53.486Z,0.30
2023-01-09T16:27:27.033Z,0.38
2023-01-09T16:29:57.805Z,0.30
2023-01-09T16:32:27.032Z,0.40
2023-01-09T16:34:55.875Z,0.30
2023-01-09T16:37:24.189Z,0.55
2023-01-09T16:40:22.368Z,0.40
2023-01-09T16:43:00.446Z,0.40
2023-01-09T16:45:33.869Z,0.43
2023-01-09T16:48:11.621Z,0.77
2023-01-09T16:50:37.979Z,0.40
2023-01-09T16:53:24.012Z,0.40
2023-01-09T16:55:52.741Z,0.40
2023-01-09T16:58:30.434Z,0.85
2023-01-09T17:00:57.972Z,2.67
2023-01-09T17:03:25.177Z,1.02
2023-01-09T17:05:53.823Z,1.00
2023-01-09T17:08:26.077Z,2.22
2023-01-09T17:10:54.292Z,9.00
2023-01-09T17:13:21.052Z,10.20
2023-01-09T17:15:47.845Z,10.60
2023-01-09T17:18:16.764Z,5.28
2023-01-09T17:20:45.666Z,1.92
2023-01-09T17:23:12.156Z,1.35
2023-01-09T17:25:58.339Z,6.43
2023-01-09T17:28:34.081Z,1.95
2023-01-09T17:31:01.787Z,2.67
2023-01-09T17:33:28.240Z,0.93
2023-01-09T17:35:55.749Z,1.00
2023-01-09T17:38:22.171Z,0.73
2023-01-09T17:40:50.072Z,0.98
2023-01-09T17:43:18.697Z,0.50
2023-01-09T17:45:45.375Z,0.40
2023-01-09T17:48:16.229Z,0.75
2023-01-09T17:50:43.410Z,0.43
2023-01-09T17:53:09.835Z,0.20
2023-01-09T17:55:36.415Z,0.80
2023-01-09T17:58:02.988Z,0.38
2023-01-09T18:00:36.652Z,0.60
2023-01-09T18:03:04.949Z,0.50
2023-01-09T18:05:31.428Z,0.80
2023-01-09T18:07:57.854Z,0.60
2023-01-09T18:10:27.241Z,1.30
2023-01-09T18:12:55.757Z,0.65
2023-01-09T18:15:24.359Z,0.98
2023-01-09T18:17:52.243Z,2.20
2023-01-09T18:20:19.165Z,3.45
2023-01-09T18:22:45.593Z,2.95
2023-01-09T18:25:11.939Z,3.80
2023-01-09T18:27:38.799Z,1.43
2023-01-09T18:30:06.804Z,0.70
2023-01-09T18:32:33.740Z,2.03
2023-01-09T18:35:00.115Z,0.80
2023-01-09T18:37:26.577Z,0.80
2023-01-09T18:39:52.968Z,0.70
2023-01-09T18:42:19.368Z,0.63
2023-01-09T18:44:45.740Z,0.90
2023-01-09T18:47:12.428Z,0.98
2023-01-09T18:49:38.884Z,0.40
2023-01-09T18:52:07.462Z,0.65
2023-01-09T18:54:34.052Z,0.70
2023-01-09T18:57:00.474Z,0.35
2023-01-09T18:59:26.901Z,1.17
2023-01-09T19:01:53.208Z,1.45
2023-01-09T19:04:19.752Z,0.53
2023-01-09T19:06:46.172Z,0.98
2023-01-09T19:09:12.583Z,0.85
2023-01-09T19:11:39.151Z,1.42
2023-01-09T19:14:05.475Z,0.70
2023-01-09T19:16:31.996Z,0.90
2023-01-09T19:18:59.029Z,0.77
2023-01-09T19:21:26.769Z,0.50
2023-01-09T19:23:53.175Z,0.22
2023-01-09T19:26:24.558Z,0.52
2023-01-09T19:28:54.871Z,0.40
2023-01-09T19:31:24.946Z,0.30
2023-01-09T19:33:52.489Z,2.25
2023-01-09T19:36:19.313Z,2.28
2023-01-09T19:38:45.859Z,1.13
2023-01-09T19:41:14.764Z,0.88
2023-01-09T19:43:41.963Z,0.32
2023-01-09T19:46:10.449Z,0.80
2023-01-09T19:48:37.536Z,1.38
2023-01-09T19:51:05.712Z,1.23
2023-01-09T19:53:33.472Z,0.60
2023-01-09T19:56:10.616Z,0.50
2023-01-09T19:58:37.304Z,1.50
2023-01-09T20:01:09.436Z,1.63
2023-01-09T20:03:37.779Z,0.47
2023-01-09T20:06:13.845Z,0.63
2023-01-09T20:08:41.477Z,0.57
2023-01-09T20:11:08.190Z,0.50
2023-01-09T20:13:35.035Z,0.68
2023-01-09T20:16:02.274Z,1.45
2023-01-09T20:18:29.619Z,0.60
2023-01-09T20:20:58.653Z,0.68
2023-01-09T20:23:27.519Z,0.68
2023-01-09T20:25:55.530Z,0.93
2023-01-09T20:28:22.647Z,0.45
2023-01-09T20:30:51.613Z,1.30
2023-01-09T20:33:19.100Z,0.47
2023-01-09T20:35:45.884Z,1.13
2023-01-09T20:38:13.095Z,1.63
2023-01-09T20:40:40.146Z,1.70
2023-01-09T20:43:06.706Z,0.40
2023-01-09T20:45:36.286Z,0.90
2023-01-09T20:48:02.738Z,0.40
2023-01-09T20:50:31.131Z,0.70
2023-01-09T20:52:57.542Z,0.68
2023-01-09T20:55:23.929Z,0.75
2023-01-09T20:57:50.296Z,0.43
2023-01-09T21:00:17.002Z,0.90
2023-01-09T21:02:43.763Z,0.63
2023-01-09T21:05:10.108Z,2.13
2023-01-09T21:07:36.482Z,0.93
2023-01-09T21:10:03.064Z,1.25
2023-01-09T21:12:34.770Z,1.20
2023-01-09T21:15:04.569Z,1.08
2023-01-09T21:17:35.412Z,1.05
2023-01-09T21:20:02.291Z,0.63
2023-01-09T21:22:32.571Z,1.05
2023-01-09T21:24:59.259Z,1.00
2023-01-09T21:27:28.187Z,0.98
2023-01-09T21:29:54.567Z,1.20
2023-01-09T21:32:21.899Z,0.50
2023-01-09T21:34:48.255Z,1.08
2023-01-09T21:37:15.872Z,0.55
2023-01-09T21:39:42.288Z,0.90
2023-01-09T21:42:28.293Z,0.93
2023-01-09T21:45:13.111Z,0.90
2023-01-09T21:47:39.572Z,1.52
2023-01-09T21:50:06.621Z,1.58
2023-01-09T21:52:36.374Z,0.40
2023-01-09T21:55:02.840Z,0.50
2023-01-09T21:57:29.212Z,0.60
2023-01-09T21:59:55.628Z,0.65
2023-01-09T22:02:22.055Z,0.75
2023-01-09T22:04:49.092Z,0.40
2023-01-09T22:07:16.379Z,0.57
2023-01-09T22:09:44.437Z,0.60
2023-01-09T22:12:12.652Z,0.55
2023-01-09T22:14:39.749Z,0.88
2023-01-09T22:17:06.212Z,0.38
2023-01-09T22:19:32.714Z,0.30
2023-01-09T22:21:59.814Z,0.77
2023-01-09T22:24:26.245Z,1.10
2023-01-09T22:26:52.637Z,0.65
2023-01-09T22:29:19.019Z,0.52
2023-01-09T22:31:45.724Z,0.98
2023-01-09T22:34:17.673Z,0.70
2023-01-09T22:36:45.520Z,0.63
2023-01-09T22:39:13.994Z,0.70
2023-01-09T22:41:40.985Z,1.30
2023-01-09T22:44:10.109Z,0.50
2023-01-09T22:46:36.943Z,0.45
2023-01-09T22:49:04.129Z,0.65
2023-01-09T22:51:33.707Z,0.85
2023-01-09T22:54:01.038Z,0.38
2023-01-09T22:56:27.819Z,0.60
2023-01-09T22:58:58.351Z,0.88
2023-01-09T23:01:24.692Z,0.63
2023-01-09T23:03:51.171Z,0.45
2023-01-09T23:06:20.758Z,0.55
2023-01-09T23:08:50.192Z,0.63
2023-01-09T23:11:41.075Z,0.63
2023-01-09T23:14:07.504Z,0.60
2023-01-09T23:16:33.895Z,1.35
2023-01-09T23:19:00.268Z,0.30
2023-01-09T23:21:26.664Z,0.47
2023-01-09T23:23:52.970Z,0.37
2023-01-09T23:26:19.356Z,0.40
2023-01-09T23:28:45.789Z,0.40
2023-01-09T23:31:12.141Z,0.30
2023-01-09T23:33:38.460Z,0.40
2023-01-09T23:36:05.216Z,0.60
2023-01-09T23:38:31.542Z,0.75
2023-01-09T23:40:58.032Z,0.75
2023-01-09T23:43:24.514Z,0.73
2023-01-09T23:45:51.983Z,0.40
2023-01-09T23:48:18.873Z,0.87
2023-01-09T23:50:50.616Z,0.70
2023-01-09T23:53:18.404Z,0.85
2023-01-09T23:55:44.944Z,0.38
2023-01-09T23:58:11.359Z,1.70
